Time;durP1;ratioP1;P1;durP2;ratioP2;P2;SDS_P1;SDS_P2;PMS_P1;PMS_P2;Temp;Humidity;BMP_temperature;BMP_pressure;BME280_temperature;BME280_humidity;BME280_pressure;Samples;Min_cycle;Max_cycle;Signal;HPM_P1;HPM_P2
2023/01/19 00:00:53;;;;;;;5.63;1.83;;;1.10;99.90;;;;;;4954890;28;20039;-68
2023/01/19 00:03:20;;;;;;;4.90;2.75;;;1.20;99.90;;;;;;4948309;28;20090;-69
2023/01/19 00:05:47;;;;;;;8.43;1.45;;;1.30;99.90;;;;;;4951676;28;20158;-65
2023/01/19 00:08:14;;;;;;;3.97;1.90;;;1.50;99.90;;;;;;4950087;28;20074;-71
2023/01/19 00:10:48;;;;;;;3.47;1.70;;;1.60;99.90;;;;;;4954347;28;20074;-65
2023/01/19 00:13:15;;;;;;;2.53;1.67;;;1.60;99.90;;;;;;4948127;28;20152;-66
2023/01/19 00:15:44;;;;;;;4.47;1.88;;;1.60;99.90;;;;;;4954236;28;20759;-65
2023/01/19 00:18:10;;;;;;;6.70;1.90;;;1.70;99.90;;;;;;4953083;28;20126;-65
2023/01/19 00:20:38;;;;;;;7.00;1.58;;;1.80;99.90;;;;;;4954688;28;20430;-68
2023/01/19 00:23:06;;;;;;;6.10;1.73;;;1.80;99.90;;;;;;4948274;28;20113;-67
2023/01/19 00:25:34;;;;;;;5.65;1.52;;;1.80;99.90;;;;;;4948649;28;20055;-69
2023/01/19 00:28:02;;;;;;;7.32;2.17;;;1.90;99.90;;;;;;4948935;28;20501;-65
2023/01/19 00:30:28;;;;;;;4.90;1.23;;;1.90;99.90;;;;;;4952580;28;20145;-66
2023/01/19 00:32:55;;;;;;;7.68;2.13;;;1.90;99.90;;;;;;4953886;28;20500;-69
2023/01/19 00:35:22;;;;;;;4.38;1.55;;;2.00;99.90;;;;;;4948536;28;20053;-66
2023/01/19 00:37:49;;;;;;;4.97;1.15;;;2.00;99.90;;;;;;4948777;28;20047;-67
2023/01/19 00:40:17;;;;;;;2.33;1.40;;;2.00;99.90;;;;;;4948349;28;20059;-65
2023/01/19 00:42:44;;;;;;;7.25;1.45;;;2.10;99.90;;;;;;4956104;28;20086;-66
2023/01/19 00:45:13;;;;;;;5.97;2.05;;;2.00;99.90;;;;;;4953677;28;20047;-65
2023/01/19 00:47:40;;;;;;;3.78;1.27;;;2.10;99.90;;;;;;4954213;28;20744;-67
2023/01/19 00:50:10;;;;;;;3.72;1.33;;;2.00;99.90;;;;;;4953304;28;20056;-67
2023/01/19 00:52:40;;;;;;;6.75;1.48;;;2.00;99.90;;;;;;4958428;28;20061;-69
2023/01/19 00:55:09;;;;;;;8.18;1.83;;;2.00;99.90;;;;;;4959125;28;20417;-65
2023/01/19 00:57:37;;;;;;;0.98;0.80;;;2.00;99.90;;;;;;4951789;28;20055;-67
2023/01/19 01:00:06;;;;;;;4.28;1.10;;;2.00;99.90;;;;;;4957499;28;20071;-64
2023/01/19 01:02:33;;;;;;;4.60;1.20;;;2.00;99.90;;;;;;4954299;28;20072;-62
2023/01/19 01:05:01;;;;;;;3.00;1.50;;;2.00;99.90;;;;;;4956901;28;20440;-67
2023/01/19 01:07:29;;;;;;;4.32;1.05;;;2.00;99.90;;;;;;4951510;28;20059;-66
2023/01/19 01:09:56;;;;;;;3.85;1.50;;;2.00;99.90;;;;;;4959959;28;20051;-66
2023/01/19 01:12:23;;;;;;;7.43;1.30;;;2.00;99.90;;;;;;4949934;28;20709;-67
2023/01/19 01:14:50;;;;;;;10.65;0.98;;;2.00;99.90;;;;;;4951684;28;20047;-65
2023/01/19 01:17:23;;;;;;;3.92;1.45;;;2.00;99.90;;;;;;4954462;28;20054;-69
2023/01/19 01:19:51;;;;;;;4.32;0.93;;;2.00;99.90;;;;;;4954501;28;20379;-65
2023/01/19 01:22:18;;;;;;;3.70;0.95;;;2.00;99.90;;;;;;4954877;28;20498;-66
2023/01/19 01:24:45;;;;;;;1.38;0.60;;;2.00;99.90;;;;;;4956604;28;20138;-63
2023/01/19 01:27:12;;;;;;;1.52;0.70;;;2.00;99.90;;;;;;4955469;28;20050;-62
2023/01/19 01:29:40;;;;;;;8.43;2.83;;;2.00;99.90;;;;;;4951896;28;20058;-65
2023/01/19 01:32:07;;;;;;;2.08;0.80;;;2.00;99.90;;;;;;4951671;28;20137;-64
2023/01/19 01:34:34;;;;;;;2.53;0.77;;;2.00;99.90;;;;;;4956476;28;20057;-62
2023/01/19 01:37:01;;;;;;;2.60;1.10;;;2.00;99.90;;;;;;4957343;28;20126;-63
2023/01/19 01:39:28;;;;;;;6.03;1.05;;;2.00;99.90;;;;;;4953619;28;20051;-66
2023/01/19 01:41:55;;;;;;;6.32;0.90;;;2.00;99.90;;;;;;4953309;28;20792;-68
2023/01/19 01:44:56;;;;;;;3.63;1.00;;;2.00;99.90;;;;;;4945931;28;20047;-64
2023/01/19 01:47:46;;;;;;;1.75;1.00;;;2.10;99.90;;;;;;4953354;28;20793;-66
2023/01/19 01:50:18;;;;;;;3.38;1.25;;;2.10;99.90;;;;;;4950896;28;20085;-67
2023/01/19 01:52:53;;;;;;;1.70;0.65;;;2.10;99.90;;;;;;4951026;28;20070;-63
2023/01/19 01:55:38;;;;;;;5.43;0.75;;;2.20;99.90;;;;;;4950258;28;20117;-67
2023/01/19 01:58:09;;;;;;;3.92;1.00;;;2.10;99.90;;;;;;4955034;28;20430;-63
2023/01/19 02:03:24;;;;;;;2.72;1.00;;;2.10;99.90;;;;;;4950211;28;19930;-64
2023/01/19 02:05:58;;;;;;;4.68;2.65;;;2.10;99.90;;;;;;4951514;28;20043;-65
2023/01/19 02:14:28;;;;;;;8.77;2.22;;;2.20;99.90;;;;;;4951799;28;20101;-67
2023/01/19 02:16:55;;;;;;;1.75;1.08;;;2.20;99.90;;;;;;4953780;28;20055;-69
2023/01/19 02:19:42;;;;;;;5.57;1.48;;;2.10;99.90;;;;;;4952720;28;20137;-63
2023/01/19 02:22:16;;;;;;;5.85;1.38;;;2.10;99.90;;;;;;4949264;28;20133;-64
2023/01/19 02:24:43;;;;;;;5.82;2.38;;;2.10;99.90;;;;;;4952577;28;20047;-68
2023/01/19 02:27:11;;;;;;;1.67;0.80;;;2.10;99.90;;;;;;4954257;28;20064;-69
2023/01/19 02:29:38;;;;;;;3.45;1.58;;;2.10;99.90;;;;;;4953952;28;20411;-67
2023/01/19 02:32:06;;;;;;;6.70;1.17;;;2.10;99.90;;;;;;4947384;28;20071;-63
2023/01/19 02:34:34;;;;;;;2.22;1.40;;;2.10;99.90;;;;;;4957433;28;20082;-67
2023/01/19 02:37:06;;;;;;;5.15;1.17;;;2.10;99.90;;;;;;4952213;28;20071;-66
2023/01/19 02:39:33;;;;;;;6.75;2.22;;;2.10;99.90;;;;;;4947575;28;20053;-70
2023/01/19 02:42:08;;;;;;;3.63;1.23;;;2.10;99.90;;;;;;4956574;28;20508;-72
2023/01/19 02:44:37;;;;;;;4.35;1.25;;;2.10;99.90;;;;;;4953353;28;20067;-68
2023/01/19 02:47:04;;;;;;;3.17;1.38;;;2.10;99.90;;;;;;4948117;28;20069;-72
2023/01/19 02:49:31;;;;;;;4.32;1.05;;;2.10;99.90;;;;;;4945762;28;20050;-66
2023/01/19 02:51:59;;;;;;;6.22;1.42;;;2.10;99.90;;;;;;4949743;28;20100;-67
2023/01/19 02:54:54;;;;;;;7.90;1.52;;;2.10;99.90;;;;;;4951230;28;20059;-66
2023/01/19 02:57:54;;;;;;;7.68;1.27;;;2.10;99.90;;;;;;4948368;28;20125;-68
2023/01/19 03:00:45;;;;;;;2.28;1.00;;;2.10;99.90;;;;;;4952893;28;20059;-65
2023/01/19 03:03:29;;;;;;;4.75;1.50;;;2.10;99.90;;;;;;4957827;28;20141;-64
2023/01/19 03:06:05;;;;;;;2.63;1.00;;;2.10;99.90;;;;;;4949715;28;20051;-66
2023/01/19 03:08:41;;;;;;;4.38;1.38;;;2.10;99.90;;;;;;4957382;28;20358;-65
2023/01/19 03:11:12;;;;;;;2.08;1.15;;;2.10;99.90;;;;;;4949940;28;20051;-66
2023/01/19 03:13:46;;;;;;;3.33;0.90;;;2.10;99.90;;;;;;4951304;28;20148;-65
2023/01/19 03:16:39;;;;;;;2.55;0.90;;;2.10;99.90;;;;;;4955976;28;20051;-66
2023/01/19 03:19:21;;;;;;;2.58;1.23;;;2.10;99.90;;;;;;4953814;28;20050;-64
2023/01/19 03:21:53;;;;;;;3.97;1.20;;;2.10;99.90;;;;;;4949900;28;20047;-65
2023/01/19 03:24:23;;;;;;;2.47;1.30;;;2.10;99.90;;;;;;4954978;28;20075;-68
2023/01/19 03:26:59;;;;;;;3.83;1.17;;;2.10;99.90;;;;;;4954531;28;20057;-65
2023/01/19 03:29:30;;;;;;;2.85;1.45;;;2.10;99.90;;;;;;4947368;28;20460;-66
2023/01/19 03:32:00;;;;;;;4.45;1.35;;;2.10;99.90;;;;;;4950064;28;20416;-71
2023/01/19 03:34:28;;;;;;;7.95;2.00;;;2.10;99.90;;;;;;4947756;28;20059;-69
2023/01/19 03:37:01;;;;;;;3.85;0.77;;;2.10;99.90;;;;;;4949413;28;20186;-68
2023/01/19 03:39:28;;;;;;;4.03;1.00;;;2.10;99.90;;;;;;4952734;28;20062;-65
2023/01/19 03:42:00;;;;;;;6.75;1.55;;;2.10;99.90;;;;;;4948542;28;20082;-68
2023/01/19 03:44:29;;;;;;;3.45;1.20;;;2.10;99.90;;;;;;4956459;28;20144;-66
2023/01/19 03:46:58;;;;;;;10.13;1.75;;;2.00;99.90;;;;;;4955715;28;20125;-73
2023/01/19 03:49:25;;;;;;;2.80;0.70;;;2.00;99.90;;;;;;4957646;28;20069;-68
2023/01/19 03:51:55;;;;;;;5.53;1.00;;;2.00;99.90;;;;;;4944993;28;20067;-65
2023/01/19 03:54:22;;;;;;;6.88;1.63;;;2.00;99.90;;;;;;4954769;28;20757;-68
2023/01/19 03:56:51;;;;;;;11.93;2.92;;;2.00;99.90;;;;;;4951510;28;20378;-64
2023/01/19 03:59:18;;;;;;;2.75;0.82;;;2.00;99.90;;;;;;4953056;28;20050;-65
2023/01/19 04:01:45;;;;;;;9.25;2.08;;;2.00;99.90;;;;;;4947398;28;20340;-64
2023/01/19 04:04:14;;;;;;;1.88;0.98;;;2.00;99.90;;;;;;4949563;28;20048;-67
2023/01/19 04:06:41;;;;;;;9.20;2.03;;;2.00;99.90;;;;;;4951372;28;20086;-65
2023/01/19 04:09:08;;;;;;;3.20;1.13;;;2.00;99.90;;;;;;4949194;28;20138;-66
2023/01/19 04:11:35;;;;;;;3.47;1.27;;;2.00;99.90;;;;;;4951581;28;20141;-64
2023/01/19 04:14:02;;;;;;;6.35;1.33;;;1.90;99.90;;;;;;4951766;28;20153;-68
2023/01/19 04:16:29;;;;;;;5.28;1.30;;;1.90;99.90;;;;;;4957340;28;20058;-66
2023/01/19 04:18:56;;;;;;;3.58;0.80;;;1.90;99.90;;;;;;4956196;28;20043;-67
2023/01/19 04:21:23;;;;;;;5.13;1.23;;;1.90;99.90;;;;;;4963666;28;20069;-66
2023/01/19 04:23:51;;;;;;;2.80;1.40;;;1.90;99.90;;;;;;4967956;28;20664;-67
2023/01/19 04:26:19;;;;;;;2.55;1.15;;;1.90;99.90;;;;;;4959070;28;20047;-69
2023/01/19 04:28:45;;;;;;;3.45;0.77;;;1.90;99.90;;;;;;4955047;28;20062;-65
2023/01/19 04:31:13;;;;;;;6.85;1.25;;;1.90;99.90;;;;;;4956703;28;20393;-65
2023/01/19 04:33:40;;;;;;;6.95;1.85;;;1.90;99.90;;;;;;4950593;28;20054;-65
2023/01/19 04:36:07;;;;;;;2.83;0.65;;;1.90;99.90;;;;;;4967397;28;20049;-69
2023/01/19 04:38:34;;;;;;;2.15;1.35;;;1.90;99.90;;;;;;4956667;28;20062;-66
2023/01/19 04:41:02;;;;;;;8.70;1.02;;;2.00;99.90;;;;;;4954279;28;20142;-64
2023/01/19 04:43:28;;;;;;;3.97;1.33;;;1.90;99.90;;;;;;4954808;28;20051;-67
2023/01/19 04:45:55;;;;;;;3.17;0.95;;;2.00;99.90;;;;;;4957114;28;20051;-65
2023/01/19 04:48:22;;;;;;;2.63;1.23;;;2.00;99.90;;;;;;4961161;28;20134;-66
2023/01/19 04:50:51;;;;;;;5.82;1.17;;;2.00;99.90;;;;;;4957510;28;20127;-71
2023/01/19 04:53:18;;;;;;;3.30;1.25;;;2.00;99.90;;;;;;4956766;28;20733;-65
2023/01/19 04:55:45;;;;;;;4.80;0.80;;;2.00;99.90;;;;;;4947309;28;20058;-66
2023/01/19 04:58:12;;;;;;;8.52;1.83;;;2.00;99.90;;;;;;4955662;28;20047;-66
2023/01/19 05:00:39;;;;;;;5.53;2.70;;;2.00;99.90;;;;;;4956144;28;20053;-71
2023/01/19 05:03:06;;;;;;;7.38;1.15;;;2.00;99.90;;;;;;4956642;28;20066;-65
2023/01/19 05:05:33;;;;;;;2.20;1.58;;;2.00;99.90;;;;;;4955379;28;20073;-64
2023/01/19 05:08:00;;;;;;;4.15;1.50;;;2.00;99.90;;;;;;4953155;28;20121;-73
2023/01/19 05:10:27;;;;;;;4.18;1.60;;;2.00;99.90;;;;;;4951502;28;20401;-66
2023/01/19 05:12:54;;;;;;;6.97;0.82;;;2.00;99.90;;;;;;4948196;28;20047;-64
2023/01/19 05:15:22;;;;;;;4.10;1.13;;;2.00;99.90;;;;;;4955308;28;20106;-68
2023/01/19 05:17:49;;;;;;;4.32;0.95;;;2.00;99.90;;;;;;4954130;28;20073;-64
2023/01/19 05:20:16;;;;;;;2.83;1.00;;;2.00;99.90;;;;;;4952644;28;20047;-64
2023/01/19 05:22:49;;;;;;;2.63;1.30;;;2.00;99.90;;;;;;4957507;28;20059;-66
2023/01/19 05:25:16;;;;;;;1.60;1.13;;;2.00;99.90;;;;;;4952005;28;20082;-67
2023/01/19 05:27:44;;;;;;;3.67;0.85;;;2.00;99.90;;;;;;4952444;28;20134;-64
2023/01/19 05:30:12;;;;;;;5.40;1.20;;;2.00;99.90;;;;;;4952774;28;20043;-68
2023/01/19 05:32:39;;;;;;;3.22;1.00;;;2.00;99.90;;;;;;4959203;28;20055;-64
2023/01/19 05:35:06;;;;;;;2.90;1.05;;;2.00;99.90;;;;;;4954036;28;20075;-68
2023/01/19 05:37:33;;;;;;;8.68;0.90;;;2.00;99.90;;;;;;4960660;28;20051;-67
2023/01/19 05:40:00;;;;;;;3.25;0.93;;;2.00;99.90;;;;;;4955670;28;20050;-68
2023/01/19 05:42:27;;;;;;;4.72;2.45;;;2.00;99.90;;;;;;4953160;28;20094;-64
2023/01/19 05:44:55;;;;;;;6.05;1.45;;;2.00;99.90;;;;;;4957646;28;20141;-66
2023/01/19 05:47:22;;;;;;;9.98;1.27;;;2.00;99.90;;;;;;4951355;28;20087;-68
2023/01/19 05:49:49;;;;;;;3.33;1.33;;;2.00;99.90;;;;;;4953548;28;20457;-64
2023/01/19 05:52:16;;;;;;;2.50;1.05;;;2.00;99.90;;;;;;4953446;28;20057;-70
2023/01/19 05:54:43;;;;;;;6.20;1.75;;;2.00;99.90;;;;;;4956161;28;20109;-68
2023/01/19 05:57:10;;;;;;;6.22;1.70;;;2.00;99.90;;;;;;4953029;28;20515;-65
2023/01/19 05:59:37;;;;;;;4.75;1.23;;;2.00;99.90;;;;;;4949738;28;20067;-67
2023/01/19 06:02:04;;;;;;;4.53;1.33;;;2.00;99.90;;;;;;4949895;28;20498;-71
2023/01/19 06:04:31;;;;;;;3.72;1.20;;;2.00;99.90;;;;;;4949454;28;20047;-64
2023/01/19 06:06:58;;;;;;;2.30;1.17;;;2.00;99.90;;;;;;4951958;28;20399;-68
2023/01/19 06:09:25;;;;;;;3.22;1.52;;;2.00;99.90;;;;;;4954619;28;20125;-69
2023/01/19 06:11:54;;;;;;;4.50;1.25;;;2.00;99.90;;;;;;4951410;28;20482;-64
2023/01/19 06:14:21;;;;;;;6.68;1.50;;;2.00;99.90;;;;;;4953350;28;20398;-65
2023/01/19 06:16:48;;;;;;;2.85;0.90;;;2.00;99.90;;;;;;4953975;28;20051;-65
2023/01/19 06:19:15;;;;;;;1.88;0.90;;;2.00;99.90;;;;;;4951247;28;20573;-66
2023/01/19 06:21:48;;;;;;;3.83;0.90;;;2.00;99.90;;;;;;4950566;28;20063;-65
2023/01/19 06:24:15;;;;;;;2.00;0.80;;;2.00;99.90;;;;;;4951256;28;20070;-65
2023/01/19 06:26:42;;;;;;;1.58;0.80;;;2.00;99.90;;;;;;4950650;28;20055;-72
2023/01/19 06:29:10;;;;;;;5.15;0.88;;;2.00;99.90;;;;;;4952863;28;20071;-65
2023/01/19 06:31:37;;;;;;;8.05;2.22;;;2.00;99.90;;;;;;4949160;28;20044;-64
2023/01/19 06:34:04;;;;;;;7.88;4.32;;;2.00;99.90;;;;;;4948477;28;20050;-71
2023/01/19 06:36:31;;;;;;;4.60;2.03;;;2.00;99.90;;;;;;4949984;28;20347;-69
2023/01/19 06:38:59;;;;;;;4.50;2.30;;;2.00;99.90;;;;;;4948144;28;20134;-68
2023/01/19 06:41:26;;;;;;;14.77;8.50;;;2.00;99.90;;;;;;4947380;28;20062;-69
2023/01/19 06:43:52;;;;;;;19.10;11.95;;;2.00;99.90;;;;;;4947273;28;20145;-65
2023/01/19 06:46:19;;;;;;;7.65;3.45;;;1.90;99.90;;;;;;4950381;28;20047;-67
2023/01/19 06:48:46;;;;;;;7.88;4.13;;;1.90;99.90;;;;;;4948747;28;20051;-70
2023/01/19 06:51:13;;;;;;;5.95;1.98;;;1.90;99.90;;;;;;4947935;28;20135;-71
2023/01/19 06:53:40;;;;;;;2.72;1.27;;;1.90;99.90;;;;;;4954294;28;20055;-65
2023/01/19 06:56:08;;;;;;;5.88;1.65;;;1.90;99.90;;;;;;4949907;28;20075;-72
2023/01/19 06:58:35;;;;;;;6.95;5.47;;;1.90;99.90;;;;;;4955032;28;20054;-69
2023/01/19 07:01:04;;;;;;;9.82;2.75;;;1.90;99.90;;;;;;4948497;28;20042;-65
2023/01/19 07:03:32;;;;;;;3.97;2.78;;;1.90;99.90;;;;;;4944100;28;20130;-70
2023/01/19 07:06:01;;;;;;;10.40;5.63;;;1.80;99.90;;;;;;4946730;28;21612;-66
2023/01/19 07:08:28;;;;;;;3.38;1.98;;;1.80;99.90;;;;;;4947939;28;20062;-66
2023/01/19 07:11:00;;;;;;;6.35;2.40;;;1.80;99.90;;;;;;4949007;28;20055;-72
2023/01/19 07:13:50;;;;;;;4.97;1.95;;;1.80;99.90;;;;;;4946533;28;20047;-65
2023/01/19 07:16:17;;;;;;;3.03;1.55;;;1.70;99.90;;;;;;4953361;28;20050;-68
2023/01/19 07:18:47;;;;;;;4.82;1.30;;;1.70;99.90;;;;;;4950207;28;20054;-65
2023/01/19 07:21:15;;;;;;;5.13;1.85;;;1.70;99.90;;;;;;4878605;28;21749;-67
2023/01/19 07:23:42;;;;;;;5.55;2.15;;;1.70;99.90;;;;;;4939164;28;20054;-66
2023/01/19 07:26:09;;;;;;;1.40;1.10;;;1.70;99.90;;;;;;4952279;28;20098;-65
2023/01/19 07:28:36;;;;;;;4.57;2.33;;;1.70;99.90;;;;;;4954040;28;20067;-68
2023/01/19 07:31:04;;;;;;;4.72;2.15;;;1.70;99.90;;;;;;4949730;28;20110;-69
2023/01/19 07:33:31;;;;;;;3.13;1.38;;;1.60;99.90;;;;;;4947817;28;20042;-65
2023/01/19 07:35:58;;;;;;;2.92;1.35;;;1.60;99.90;;;;;;4946170;28;20142;-66
2023/01/19 07:38:24;;;;;;;3.78;2.00;;;1.60;99.90;;;;;;4949030;28;20067;-67
2023/01/19 07:40:59;;;;;;;3.05;1.67;;;1.60;99.90;;;;;;4949876;28;20051;-67
2023/01/19 07:43:26;;;;;;;2.75;1.70;;;1.60;99.90;;;;;;4950493;28;20126;-69
2023/01/19 07:45:57;;;;;;;4.55;2.40;;;1.60;99.90;;;;;;4946164;28;20097;-65
2023/01/19 07:48:25;;;;;;;4.45;0.98;;;1.60;99.90;;;;;;4943568;28;20676;-66
2023/01/19 07:50:52;;;;;;;4.45;2.17;;;1.60;99.90;;;;;;4945859;28;20572;-73
2023/01/19 07:53:19;;;;;;;4.68;1.80;;;1.60;99.90;;;;;;4947073;28;20145;-68
2023/01/19 07:55:46;;;;;;;3.42;1.95;;;1.60;99.90;;;;;;4944214;28;20158;-67
2023/01/19 07:58:13;;;;;;;3.90;2.35;;;1.60;99.90;;;;;;4949607;28;20047;-71
2023/01/19 08:00:40;;;;;;;1.65;1.25;;;1.60;99.90;;;;;;4950944;28;20045;-66
2023/01/19 08:03:08;;;;;;;3.00;0.77;;;1.60;99.90;;;;;;4940807;28;20147;-68
2023/01/19 08:05:35;;;;;;;1.77;1.48;;;1.60;99.90;;;;;;4948891;28;20131;-73
2023/01/19 08:08:04;;;;;;;5.68;4.13;;;1.60;99.90;;;;;;4942163;28;20049;-64
2023/01/19 08:10:32;;;;;;;5.57;1.33;;;1.60;99.90;;;;;;4951898;28;20050;-67
2023/01/19 08:12:59;;;;;;;4.85;2.72;;;1.60;99.90;;;;;;4949792;28;20549;-66
2023/01/19 08:15:27;;;;;;;2.22;1.60;;;1.60;99.90;;;;;;4953408;28;20073;-66
2023/01/19 08:18:04;;;;;;;5.22;2.10;;;1.50;99.90;;;;;;4950395;28;20102;-66
2023/01/19 08:20:31;;;;;;;3.42;2.45;;;1.50;99.90;;;;;;4950002;28;20078;-70
2023/01/19 08:22:58;;;;;;;1.92;1.70;;;1.50;99.90;;;;;;4948848;28;20102;-72
2023/01/19 08:25:31;;;;;;;4.40;1.38;;;1.50;99.90;;;;;;4949416;28;20138;-67
2023/01/19 08:27:58;;;;;;;2.90;2.08;;;1.40;99.90;;;;;;4945336;28;20102;-67
2023/01/19 08:30:25;;;;;;;2.55;1.40;;;1.40;99.90;;;;;;4949859;28;20397;-67
2023/01/19 08:33:02;;;;;;;3.80;1.88;;;1.40;99.90;;;;;;4951971;28;20196;-67
2023/01/19 08:35:30;;;;;;;7.00;3.25;;;1.40;99.90;;;;;;4950810;28;20055;-66
2023/01/19 08:38:00;;;;;;;2.83;1.40;;;1.40;99.90;;;;;;4949935;28;20461;-66
2023/01/19 08:40:28;;;;;;;6.73;1.93;;;1.50;99.90;;;;;;4944996;28;20106;-69
2023/01/19 08:43:07;;;;;;;3.30;1.30;;;1.50;99.90;;;;;;4942863;28;20047;-71
2023/01/19 08:45:36;;;;;;;7.60;2.25;;;1.50;99.90;;;;;;4952303;28;20077;-66
2023/01/19 08:48:05;;;;;;;8.25;1.67;;;1.50;99.90;;;;;;4947882;28;20517;-67
2023/01/19 08:50:33;;;;;;;33.65;2.95;;;1.50;99.90;;;;;;4949626;28;20082;-65
2023/01/19 08:53:01;;;;;;;4.32;1.50;;;1.50;99.90;;;;;;4948818;28;20082;-69
2023/01/19 08:55:29;;;;;;;1.98;1.45;;;1.50;99.90;;;;;;4947441;28;20055;-67
2023/01/19 08:57:58;;;;;;;2.28;1.40;;;1.50;99.90;;;;;;4949168;28;20092;-66
2023/01/19 09:00:26;;;;;;;5.35;1.40;;;1.50;99.90;;;;;;4956582;28;20079;-68
2023/01/19 09:02:53;;;;;;;4.78;1.50;;;1.50;99.90;;;;;;4954673;28;20528;-65
2023/01/19 09:05:21;;;;;;;5.30;1.60;;;1.50;99.90;;;;;;4956581;28;20408;-67
2023/01/19 09:07:48;;;;;;;4.82;1.52;;;1.50;99.90;;;;;;4964276;28;20067;-73
2023/01/19 09:10:15;;;;;;;4.25;2.30;;;1.50;99.90;;;;;;4951363;28;20485;-65
2023/01/19 09:12:43;;;;;;;5.70;1.65;;;1.50;99.90;;;;;;4953506;28;20051;-65
2023/01/19 09:15:13;;;;;;;1.38;1.27;;;1.40;99.90;;;;;;4956195;28;20066;-68
2023/01/19 09:17:41;;;;;;;6.32;1.60;;;1.40;99.90;;;;;;4956554;28;20162;-68
2023/01/19 09:20:08;;;;;;;4.45;1.45;;;1.40;99.90;;;;;;4954359;28;20043;-67
2023/01/19 09:22:35;;;;;;;3.05;1.77;;;1.40;99.90;;;;;;4959601;28;20153;-67
2023/01/19 09:25:02;;;;;;;3.30;1.33;;;1.40;99.90;;;;;;4949774;28;20049;-68
2023/01/19 09:27:30;;;;;;;4.13;1.92;;;1.40;99.90;;;;;;4949331;28;20110;-65
2023/01/19 09:29:56;;;;;;;2.53;1.90;;;1.40;99.90;;;;;;4954828;28;20057;-69
2023/01/19 09:32:23;;;;;;;2.47;2.15;;;1.40;99.90;;;;;;4952878;28;20051;-66
2023/01/19 09:34:52;;;;;;;5.80;2.22;;;1.40;99.90;;;;;;4957846;28;20055;-66
2023/01/19 09:37:19;;;;;;;3.38;2.22;;;1.40;99.90;;;;;;4944972;28;20655;-65
2023/01/19 09:39:46;;;;;;;4.35;1.88;;;1.40;99.90;;;;;;4956325;28;20145;-67
2023/01/19 09:42:30;;;;;;;3.25;2.38;;;1.40;99.90;;;;;;4953817;28;20489;-69
2023/01/19 09:44:57;;;;;;;7.10;2.13;;;1.40;99.90;;;;;;4951610;28;20047;-69
2023/01/19 09:47:28;;;;;;;4.07;2.30;;;1.40;99.90;;;;;;4957769;28;20057;-67
2023/01/19 09:50:00;;;;;;;3.00;2.38;;;1.40;99.90;;;;;;4947845;28;20069;-71
2023/01/19 09:52:30;;;;;;;6.63;2.03;;;1.40;99.90;;;;;;4958179;28;20206;-68
2023/01/19 09:54:57;;;;;;;3.22;1.60;;;1.50;99.90;;;;;;4954405;28;20039;-69
2023/01/19 09:57:26;;;;;;;9.80;2.10;;;1.50;99.90;;;;;;4952086;28;20089;-65
2023/01/19 09:59:58;;;;;;;3.38;1.20;;;1.50;99.90;;;;;;4950575;28;20148;-72
2023/01/19 10:02:34;;;;;;;1.30;1.10;;;1.60;99.90;;;;;;4952151;28;20055;-72
2023/01/19 10:05:04;;;;;;;6.38;1.65;;;1.60;99.90;;;;;;4949274;28;20055;-68
2023/01/19 10:07:31;;;;;;;3.30;1.13;;;1.60;99.90;;;;;;4947758;28;20412;-67
2023/01/19 10:10:12;;;;;;;3.03;1.50;;;1.70;99.90;;;;;;4947611;28;20130;-68
2023/01/19 10:12:54;;;;;;;6.88;1.58;;;1.80;99.90;;;;;;4949787;28;20119;-69
2023/01/19 10:15:35;;;;;;;5.20;2.13;;;1.80;99.90;;;;;;4948100;28;20055;-65
2023/01/19 10:18:14;;;;;;;4.63;1.83;;;1.80;99.90;;;;;;4946557;28;20107;-65
2023/01/19 10:21:19;;;;;;;3.35;1.90;;;1.80;99.90;;;;;;4955034;28;20071;-69
2023/01/19 10:23:57;;;;;;;5.10;2.10;;;1.80;99.90;;;;;;4914869;28;20114;-65
2023/01/19 10:26:42;;;;;;;2.65;1.88;;;1.80;99.90;;;;;;4954520;28;20126;-71
2023/01/19 10:29:27;;;;;;;3.97;2.63;;;1.90;99.90;;;;;;4948829;28;20126;-66
2023/01/19 10:32:33;;;;;;;3.55;1.90;;;1.90;99.90;;;;;;4939043;28;20458;-73
2023/01/19 10:35:03;;;;;;;4.50;2.40;;;1.90;99.90;;;;;;4954719;28;20070;-67
2023/01/19 10:37:37;;;;;;;9.43;2.38;;;1.90;99.90;;;;;;4947663;28;20051;-66
2023/01/19 10:40:10;;;;;;;3.22;1.90;;;2.00;99.90;;;;;;4952896;28;20369;-67
2023/01/19 10:42:39;;;;;;;2.60;1.48;;;2.00;99.90;;;;;;4945400;28;20075;-64
2023/01/19 10:45:22;;;;;;;4.90;2.75;;;2.10;99.90;;;;;;4955361;28;20071;-66
2023/01/19 10:47:49;;;;;;;4.47;3.10;;;2.10;99.90;;;;;;4943851;28;20082;-65
2023/01/19 10:50:31;;;;;;;8.98;2.50;;;2.10;99.90;;;;;;4951189;28;20393;-68
2023/01/19 10:53:03;;;;;;;3.58;3.00;;;2.20;99.90;;;;;;4950996;28;20051;-65
2023/01/19 10:55:38;;;;;;;2.20;1.73;;;2.20;99.90;;;;;;4952673;28;20560;-73
2023/01/19 10:58:25;;;;;;;2.05;1.50;;;2.20;99.90;;;;;;4950951;28;20049;-68
2023/01/19 11:00:51;;;;;;;4.55;2.10;;;2.30;99.90;;;;;;4956500;28;20109;-67
2023/01/19 11:03:29;;;;;;;3.13;1.85;;;2.30;99.90;;;;;;4944319;28;20118;-66
2023/01/19 11:06:14;;;;;;;4.97;1.35;;;2.30;99.90;;;;;;4946261;28;20197;-70
2023/01/19 11:08:43;;;;;;;4.40;1.80;;;2.40;99.90;;;;;;4951240;28;20402;-73
2023/01/19 11:11:11;;;;;;;4.43;2.13;;;2.40;99.90;;;;;;4950116;28;20059;-66
2023/01/19 11:13:39;;;;;;;3.58;2.30;;;2.30;99.90;;;;;;4954867;28;20049;-65
2023/01/19 11:16:19;;;;;;;5.07;1.90;;;2.40;99.90;;;;;;4954526;28;20049;-68
2023/01/19 11:18:51;;;;;;;4.57;2.50;;;2.40;99.90;;;;;;4947727;28;20054;-68
2023/01/19 11:21:23;;;;;;;3.65;1.90;;;2.40;99.90;;;;;;4952335;28;20074;-74
2023/01/19 11:23:58;;;;;;;4.38;2.65;;;2.40;99.90;;;;;;4950192;28;20047;-74
2023/01/19 11:26:33;;;;;;;6.55;3.13;;;2.40;99.90;;;;;;4950102;28;20141;-72
2023/01/19 11:29:02;;;;;;;6.25;3.08;;;2.40;99.90;;;;;;4950107;28;20072;-69
2023/01/19 11:31:33;;;;;;;7.23;2.70;;;2.40;99.90;;;;;;4950445;28;20070;-68
2023/01/19 11:34:20;;;;;;;3.95;2.28;;;2.40;99.90;;;;;;4945249;28;20061;-74
2023/01/19 11:37:00;;;;;;;7.47;2.63;;;2.40;99.90;;;;;;4947339;28;20046;-68
2023/01/19 11:39:29;;;;;;;5.18;2.40;;;2.40;99.90;;;;;;4951457;28;20055;-67
2023/01/19 11:42:00;;;;;;;6.40;2.05;;;2.40;99.90;;;;;;4950020;28;20150;-68
2023/01/19 11:44:43;;;;;;;8.98;2.60;;;2.40;99.90;;;;;;4945921;28;20051;-71
2023/01/19 11:47:18;;;;;;;8.23;3.60;;;2.40;99.90;;;;;;4945972;28;20070;-66
2023/01/19 11:50:04;;;;;;;4.47;2.20;;;2.40;99.90;;;;;;4945990;28;20046;-67
2023/01/19 11:52:42;;;;;;;4.32;2.78;;;2.50;99.90;;;;;;4944601;28;20051;-66
2023/01/19 11:55:45;;;;;;;3.88;3.08;;;2.50;99.90;;;;;;4945232;28;20059;-76
2023/01/19 11:58:15;;;;;;;4.03;3.72;;;2.50;99.90;;;;;;4948705;28;20410;-66
2023/01/19 12:00:44;;;;;;;4.37;2.37;;;2.60;99.90;;;;;;4946844;28;20039;-65
2023/01/19 12:03:23;;;;;;;2.72;2.50;;;2.60;99.90;;;;;;4947389;28;20408;-71
2023/01/19 12:05:54;;;;;;;3.42;2.75;;;2.70;99.90;;;;;;4952845;28;20119;-76
2023/01/19 12:08:25;;;;;;;3.90;3.38;;;2.70;99.90;;;;;;4947398;28;20685;-66
2023/01/19 12:10:57;;;;;;;7.13;2.60;;;2.80;99.90;;;;;;4949465;28;20056;-75
2023/01/19 12:13:26;;;;;;;4.18;2.90;;;2.80;99.90;;;;;;4946713;28;20067;-68
2023/01/19 12:16:20;;;;;;;5.53;3.03;;;2.80;99.90;;;;;;4948399;28;20053;-71
2023/01/19 12:19:08;;;;;;;6.40;3.22;;;2.90;99.90;;;;;;4942851;28;20443;-67
2023/01/19 12:21:36;;;;;;;3.40;2.58;;;2.90;99.90;;;;;;4942075;28;20051;-67
2023/01/19 12:24:16;;;;;;;4.00;2.97;;;2.90;99.90;;;;;;4944622;28;20035;-66
2023/01/19 12:27:11;;;;;;;8.65;2.70;;;2.90;99.90;;;;;;4946059;28;20201;-66
2023/01/19 12:29:39;;;;;;;5.43;2.67;;;2.90;99.90;;;;;;4947047;28;20386;-70
2023/01/19 12:32:12;;;;;;;4.55;2.78;;;2.90;99.90;;;;;;4941540;28;20134;-67
2023/01/19 12:34:41;;;;;;;5.63;2.42;;;2.90;99.90;;;;;;4949661;28;20051;-67
2023/01/19 12:37:27;;;;;;;7.00;2.70;;;2.90;99.90;;;;;;4951804;28;20143;-69
2023/01/19 12:39:56;;;;;;;6.50;2.88;;;2.90;99.90;;;;;;4946216;28;20051;-65
2023/01/19 12:42:25;;;;;;;8.93;3.35;;;2.90;99.90;;;;;;4955388;28;20051;-65
2023/01/19 12:45:12;;;;;;;6.72;2.83;;;2.90;99.90;;;;;;4958813;28;20051;-68
2023/01/19 12:47:48;;;;;;;6.88;2.60;;;2.90;99.90;;;;;;4954364;28;22204;-68
2023/01/19 12:50:22;;;;;;;4.03;2.37;;;2.90;99.90;;;;;;4954475;28;20950;-65
2023/01/19 12:52:55;;;;;;;;;;;2.80;99.90;;;;;;4955316;28;20093;-70
2023/01/19 12:55:26;;;;;;;4.40;3.13;;;2.80;99.90;;;;;;4952914;28;20012;-67
2023/01/19 12:57:59;;;;;;;6.10;2.88;;;2.80;99.90;;;;;;4955083;28;20047;-69
2023/01/19 13:00:35;;;;;;;7.32;3.05;;;2.90;99.90;;;;;;4956233;28;20162;-66
2023/01/19 13:03:01;;;;;;;6.30;3.42;;;2.80;99.90;;;;;;4956171;28;20043;-68
2023/01/19 13:05:31;;;;;;;5.93;3.00;;;2.80;99.90;;;;;;4954837;28;20059;-65
2023/01/19 13:08:02;;;;;;;;;;;2.80;99.90;;;;;;4949420;28;20071;-65
2023/01/19 13:11:17;;;;;;;11.63;3.97;;;2.70;99.90;;;;;;4948883;28;20443;-66
2023/01/19 13:14:03;;;;;;;5.75;4.18;;;2.70;99.90;;;;;;4941626;28;20373;-69
2023/01/19 13:16:30;;;;;;;6.47;5.15;;;2.60;99.90;;;;;;4945166;28;20082;-66
2023/01/19 13:19:06;;;;;;;7.72;3.97;;;2.70;99.90;;;;;;4947098;28;20055;-67
2023/01/19 13:21:48;;;;;;;6.68;4.20;;;2.70;99.90;;;;;;4950778;28;20106;-64
2023/01/19 13:24:18;;;;;;;5.03;3.40;;;2.70;99.90;;;;;;4942559;28;20051;-65
2023/01/19 13:26:47;;;;;;;8.80;3.88;;;2.70;99.90;;;;;;4951063;28;20129;-63